リガ の空港の天気 - METARとTAF

リガ国際空港 ( EVRA / RIX ) - ラトビア リガ
飛行場実況気象(Metar)
観測時間10/24 05:20 EEST (10/24 02:20 UTC)
風向・風速北北西 4m/s
視程10km以上
天気現象
全天の8割程度の雲 雲底高度 850m
気温6℃
湿度61%
気圧1023hPa
METAREVRA 240220Z 34007KT 9999 BKN028 06/M01 Q1023 R36/290195 NOSIG
過去の天気等 Google飛行場航空写真 Wunderground天気予報

過去48時間のMETAR

飛行場予報(TAF)
発表時間: 10/24 05:00 EEST (10/24 02:00 UTC)
予報対象時間: 24日6時 EEST ~ 25日6時 EEST
風向・風速北西 5m/s
視程10km以上
全天の4割程度の雲 雲底高度 610m
24日13時 EEST ~ 24日15時 EEST に徐々に
風向・風速南西 4m/s
TAF EVRA 240200Z 2403/2503 31010KT 9999 SCT020
BECMG 2410/2412 23007KT